sensor_id;sensor_type;location;lat;lon;timestamp;P1;durP1;ratioP1;P2;durP2;ratioP2
42600;SDS011;28229;48.856;9.088;2023-05-07T00:00:47;7.03;;;5.40;;
42600;SDS011;28229;48.856;9.088;2023-05-07T00:03:13;6.13;;;5.40;;
42600;SDS011;28229;48.856;9.088;2023-05-07T00:05:39;4.93;;;4.43;;
42600;SDS011;28229;48.856;9.088;2023-05-07T00:08:05;6.00;;;5.00;;
42600;SDS011;28229;48.856;9.088;2023-05-07T00:10:32;6.03;;;5.20;;
42600;SDS011;28229;48.856;9.088;2023-05-07T00:12:58;6.07;;;4.90;;
42600;SDS011;28229;48.856;9.088;2023-05-07T00:15:24;6.43;;;5.03;;
42600;SDS011;28229;48.856;9.088;2023-05-07T00:17:50;6.50;;;5.00;;
42600;SDS011;28229;48.856;9.088;2023-05-07T00:20:16;5.47;;;4.97;;
42600;SDS011;28229;48.856;9.088;2023-05-07T00:22:42;8.87;;;5.30;;
42600;SDS011;28229;48.856;9.088;2023-05-07T00:25:08;5.37;;;4.60;;
42600;SDS011;28229;48.856;9.088;2023-05-07T00:27:36;5.07;;;4.60;;
42600;SDS011;28229;48.856;9.088;2023-05-07T00:30:02;5.63;;;4.77;;
42600;SDS011;28229;48.856;9.088;2023-05-07T00:32:28;5.10;;;4.60;;
42600;SDS011;28229;48.856;9.088;2023-05-07T00:34:55;7.13;;;4.90;;
42600;SDS011;28229;48.856;9.088;2023-05-07T00:37:21;5.30;;;4.60;;
42600;SDS011;28229;48.856;9.088;2023-05-07T00:39:47;5.33;;;4.70;;
42600;SDS011;28229;48.856;9.088;2023-05-07T00:42:13;4.97;;;4.53;;
42600;SDS011;28229;48.856;9.088;2023-05-07T00:44:40;6.20;;;5.17;;
42600;SDS011;28229;48.856;9.088;2023-05-07T00:47:07;6.07;;;5.50;;
42600;SDS011;28229;48.856;9.088;2023-05-07T00:49:41;5.40;;;4.90;;
42600;SDS011;28229;48.856;9.088;2023-05-07T00:52:13;5.80;;;5.30;;
42600;SDS011;28229;48.856;9.088;2023-05-07T00:54:41;5.90;;;5.30;;
42600;SDS011;28229;48.856;9.088;2023-05-07T00:57:11;6.20;;;5.00;;
42600;SDS011;28229;48.856;9.088;2023-05-07T00:59:37;6.03;;;5.00;;
42600;SDS011;28229;48.856;9.088;2023-05-07T01:02:04;6.10;;;5.10;;
42600;SDS011;28229;48.856;9.088;2023-05-07T01:04:30;5.17;;;4.67;;
42600;SDS011;28229;48.856;9.088;2023-05-07T01:06:56;5.37;;;4.60;;
42600;SDS011;28229;48.856;9.088;2023-05-07T01:09:24;5.90;;;4.63;;
42600;SDS011;28229;48.856;9.088;2023-05-07T01:11:51;6.60;;;4.83;;
42600;SDS011;28229;48.856;9.088;2023-05-07T01:14:18;5.33;;;4.83;;
42600;SDS011;28229;48.856;9.088;2023-05-07T01:16:46;5.27;;;4.77;;
42600;SDS011;28229;48.856;9.088;2023-05-07T01:19:14;4.77;;;4.37;;
42600;SDS011;28229;48.856;9.088;2023-05-07T01:21:44;5.57;;;4.87;;
42600;SDS011;28229;48.856;9.088;2023-05-07T01:24:14;6.00;;;4.87;;
42600;SDS011;28229;48.856;9.088;2023-05-07T01:26:42;5.73;;;4.70;;
42600;SDS011;28229;48.856;9.088;2023-05-07T01:29:10;6.70;;;4.80;;
42600;SDS011;28229;48.856;9.088;2023-05-07T01:31:36;5.00;;;4.50;;
42600;SDS011;28229;48.856;9.088;2023-05-07T01:34:03;5.30;;;4.60;;
42600;SDS011;28229;48.856;9.088;2023-05-07T01:36:32;5.70;;;5.20;;
42600;SDS011;28229;48.856;9.088;2023-05-07T01:38:59;5.80;;;4.87;;
42600;SDS011;28229;48.856;9.088;2023-05-07T01:41:28;5.07;;;4.37;;
42600;SDS011;28229;48.856;9.088;2023-05-07T01:43:55;4.90;;;4.40;;
42600;SDS011;28229;48.856;9.088;2023-05-07T01:46:23;5.07;;;4.50;;
42600;SDS011;28229;48.856;9.088;2023-05-07T01:48:52;5.13;;;4.67;;
42600;SDS011;28229;48.856;9.088;2023-05-07T01:51:18;5.00;;;4.60;;
42600;SDS011;28229;48.856;9.088;2023-05-07T01:53:46;5.20;;;4.70;;
42600;SDS011;28229;48.856;9.088;2023-05-07T01:56:17;4.80;;;4.33;;
42600;SDS011;28229;48.856;9.088;2023-05-07T01:58:44;5.53;;;4.40;;
42600;SDS011;28229;48.856;9.088;2023-05-07T02:01:12;5.30;;;4.70;;
42600;SDS011;28229;48.856;9.088;2023-05-07T02:03:39;4.57;;;4.17;;
42600;SDS011;28229;48.856;9.088;2023-05-07T02:06:13;4.70;;;4.20;;
42600;SDS011;28229;48.856;9.088;2023-05-07T02:08:39;5.03;;;4.50;;
42600;SDS011;28229;48.856;9.088;2023-05-07T02:11:06;4.90;;;4.47;;
42600;SDS011;28229;48.856;9.088;2023-05-07T02:13:33;5.10;;;4.60;;
42600;SDS011;28229;48.856;9.088;2023-05-07T02:16:01;5.13;;;4.63;;
42600;SDS011;28229;48.856;9.088;2023-05-07T02:18:28;5.93;;;4.73;;
42600;SDS011;28229;48.856;9.088;2023-05-07T02:20:54;5.17;;;4.60;;
42600;SDS011;28229;48.856;9.088;2023-05-07T02:23:20;5.07;;;4.37;;
42600;SDS011;28229;48.856;9.088;2023-05-07T02:25:47;5.37;;;4.80;;
42600;SDS011;28229;48.856;9.088;2023-05-07T02:28:13;4.80;;;4.40;;
42600;SDS011;28229;48.856;9.088;2023-05-07T02:30:49;4.70;;;4.30;;
42600;SDS011;28229;48.856;9.088;2023-05-07T02:33:15;5.30;;;4.80;;
42600;SDS011;28229;48.856;9.088;2023-05-07T02:35:41;4.83;;;4.33;;
42600;SDS011;28229;48.856;9.088;2023-05-07T02:38:08;4.90;;;4.50;;
42600;SDS011;28229;48.856;9.088;2023-05-07T02:40:36;4.90;;;4.50;;
42600;SDS011;28229;48.856;9.088;2023-05-07T02:43:05;5.50;;;4.47;;
42600;SDS011;28229;48.856;9.088;2023-05-07T02:45:32;5.97;;;4.70;;
42600;SDS011;28229;48.856;9.088;2023-05-07T02:47:59;4.93;;;4.30;;
42600;SDS011;28229;48.856;9.088;2023-05-07T02:50:25;5.30;;;4.80;;
42600;SDS011;28229;48.856;9.088;2023-05-07T02:52:52;4.93;;;4.43;;
42600;SDS011;28229;48.856;9.088;2023-05-07T02:55:19;4.80;;;4.40;;
42600;SDS011;28229;48.856;9.088;2023-05-07T02:57:45;5.00;;;4.60;;
42600;SDS011;28229;48.856;9.088;2023-05-07T03:00:12;5.47;;;4.87;;
42600;SDS011;28229;48.856;9.088;2023-05-07T03:02:45;5.10;;;4.57;;
42600;SDS011;28229;48.856;9.088;2023-05-07T03:05:11;5.20;;;4.70;;
42600;SDS011;28229;48.856;9.088;2023-05-07T03:07:38;4.50;;;4.10;;
42600;SDS011;28229;48.856;9.088;2023-05-07T03:10:04;6.27;;;4.40;;
42600;SDS011;28229;48.856;9.088;2023-05-07T03:12:31;5.00;;;4.50;;
42600;SDS011;28229;48.856;9.088;2023-05-07T03:14:57;4.90;;;4.50;;
42600;SDS011;28229;48.856;9.088;2023-05-07T03:17:24;5.60;;;4.77;;
42600;SDS011;28229;48.856;9.088;2023-05-07T03:19:50;5.00;;;4.60;;
42600;SDS011;28229;48.856;9.088;2023-05-07T03:22:18;5.20;;;4.50;;
42600;SDS011;28229;48.856;9.088;2023-05-07T03:24:45;5.10;;;4.70;;
42600;SDS011;28229;48.856;9.088;2023-05-07T03:27:12;5.17;;;4.67;;
42600;SDS011;28229;48.856;9.088;2023-05-07T03:29:38;5.10;;;4.70;;
42600;SDS011;28229;48.856;9.088;2023-05-07T03:32:04;5.40;;;4.80;;
42600;SDS011;28229;48.856;9.088;2023-05-07T03:34:32;4.77;;;4.37;;
42600;SDS011;28229;48.856;9.088;2023-05-07T03:36:58;5.23;;;4.73;;
42600;SDS011;28229;48.856;9.088;2023-05-07T03:39:25;5.30;;;4.80;;
42600;SDS011;28229;48.856;9.088;2023-05-07T03:41:51;5.20;;;4.70;;
42600;SDS011;28229;48.856;9.088;2023-05-07T03:44:17;4.93;;;4.47;;
42600;SDS011;28229;48.856;9.088;2023-05-07T03:46:46;6.03;;;4.67;;
42600;SDS011;28229;48.856;9.088;2023-05-07T03:49:12;6.13;;;5.00;;
42600;SDS011;28229;48.856;9.088;2023-05-07T03:51:38;4.93;;;4.53;;
42600;SDS011;28229;48.856;9.088;2023-05-07T03:56:36;5.43;;;4.37;;
42600;SDS011;28229;48.856;9.088;2023-05-07T03:59:02;5.00;;;4.60;;
42600;SDS011;28229;48.856;9.088;2023-05-07T04:01:29;5.17;;;4.33;;
42600;SDS011;28229;48.856;9.088;2023-05-07T04:03:56;6.03;;;4.47;;
42600;SDS011;28229;48.856;9.088;2023-05-07T04:06:24;5.60;;;4.50;;
42600;SDS011;28229;48.856;9.088;2023-05-07T04:08:50;4.80;;;4.40;;
42600;SDS011;28229;48.856;9.088;2023-05-07T04:11:17;5.00;;;4.60;;
42600;SDS011;28229;48.856;9.088;2023-05-07T04:13:43;4.83;;;4.40;;
42600;SDS011;28229;48.856;9.088;2023-05-07T04:16:10;4.97;;;4.47;;
42600;SDS011;28229;48.856;9.088;2023-05-07T04:18:37;5.80;;;4.47;;
42600;SDS011;28229;48.856;9.088;2023-05-07T04:21:05;5.17;;;4.67;;
42600;SDS011;28229;48.856;9.088;2023-05-07T04:23:32;5.70;;;4.53;;
42600;SDS011;28229;48.856;9.088;2023-05-07T04:26:02;4.97;;;4.40;;
42600;SDS011;28229;48.856;9.088;2023-05-07T04:28:34;5.20;;;4.80;;
42600;SDS011;28229;48.856;9.088;2023-05-07T04:31:01;4.83;;;4.43;;
42600;SDS011;28229;48.856;9.088;2023-05-07T04:33:32;5.27;;;4.40;;
42600;SDS011;28229;48.856;9.088;2023-05-07T04:36:00;4.77;;;4.30;;
42600;SDS011;28229;48.856;9.088;2023-05-07T04:38:29;5.57;;;4.43;;
42600;SDS011;28229;48.856;9.088;2023-05-07T04:41:02;38.03;;;9.57;;
42600;SDS011;28229;48.856;9.088;2023-05-07T04:43:30;5.77;;;5.17;;
42600;SDS011;28229;48.856;9.088;2023-05-07T04:45:59;7.07;;;4.90;;
42600;SDS011;28229;48.856;9.088;2023-05-07T04:48:26;6.17;;;5.00;;
42600;SDS011;28229;48.856;9.088;2023-05-07T04:50:54;7.47;;;5.53;;
42600;SDS011;28229;48.856;9.088;2023-05-07T04:53:23;6.90;;;5.17;;
42600;SDS011;28229;48.856;9.088;2023-05-07T04:55:59;6.43;;;4.73;;
42600;SDS011;28229;48.856;9.088;2023-05-07T04:58:32;6.93;;;4.70;;
42600;SDS011;28229;48.856;9.088;2023-05-07T05:00:58;6.50;;;5.17;;
42600;SDS011;28229;48.856;9.088;2023-05-07T05:03:26;5.30;;;4.80;;
42600;SDS011;28229;48.856;9.088;2023-05-07T05:05:52;5.83;;;5.20;;
42600;SDS011;28229;48.856;9.088;2023-05-07T05:08:20;6.37;;;5.07;;
42600;SDS011;28229;48.856;9.088;2023-05-07T05:10:46;5.83;;;5.00;;
42600;SDS011;28229;48.856;9.088;2023-05-07T05:13:14;5.40;;;4.90;;
42600;SDS011;28229;48.856;9.088;2023-05-07T05:15:41;5.87;;;5.30;;
42600;SDS011;28229;48.856;9.088;2023-05-07T05:18:08;6.10;;;5.47;;
42600;SDS011;28229;48.856;9.088;2023-05-07T05:20:34;13.73;;;5.30;;
42600;SDS011;28229;48.856;9.088;2023-05-07T05:23:00;6.40;;;4.87;;
42600;SDS011;28229;48.856;9.088;2023-05-07T05:25:26;5.40;;;4.63;;
42600;SDS011;28229;48.856;9.088;2023-05-07T05:27:54;6.63;;;5.20;;
42600;SDS011;28229;48.856;9.088;2023-05-07T05:30:21;6.00;;;4.80;;
42600;SDS011;28229;48.856;9.088;2023-05-07T05:32:47;6.07;;;5.40;;
42600;SDS011;28229;48.856;9.088;2023-05-07T05:35:14;5.70;;;5.13;;
42600;SDS011;28229;48.856;9.088;2023-05-07T05:37:41;5.50;;;5.00;;
42600;SDS011;28229;48.856;9.088;2023-05-07T05:40:08;8.27;;;5.23;;
42600;SDS011;28229;48.856;9.088;2023-05-07T05:42:36;5.43;;;4.87;;
42600;SDS011;28229;48.856;9.088;2023-05-07T05:45:05;4.73;;;4.33;;
42600;SDS011;28229;48.856;9.088;2023-05-07T05:47:33;5.20;;;4.63;;
42600;SDS011;28229;48.856;9.088;2023-05-07T05:50:01;4.50;;;4.10;;
42600;SDS011;28229;48.856;9.088;2023-05-07T05:52:30;4.37;;;3.93;;
42600;SDS011;28229;48.856;9.088;2023-05-07T05:54:57;5.00;;;4.50;;
42600;SDS011;28229;48.856;9.088;2023-05-07T05:57:26;4.40;;;4.00;;
42600;SDS011;28229;48.856;9.088;2023-05-07T05:59:53;4.47;;;3.63;;
42600;SDS011;28229;48.856;9.088;2023-05-07T06:02:22;4.37;;;3.90;;
42600;SDS011;28229;48.856;9.088;2023-05-07T06:04:49;4.50;;;4.10;;
42600;SDS011;28229;48.856;9.088;2023-05-07T06:07:19;4.20;;;3.90;;
42600;SDS011;28229;48.856;9.088;2023-05-07T06:09:45;4.33;;;3.90;;
42600;SDS011;28229;48.856;9.088;2023-05-07T06:12:13;5.20;;;3.97;;
42600;SDS011;28229;48.856;9.088;2023-05-07T06:14:39;4.03;;;3.73;;
42600;SDS011;28229;48.856;9.088;2023-05-07T06:17:08;4.90;;;4.00;;
42600;SDS011;28229;48.856;9.088;2023-05-07T06:19:35;5.07;;;3.70;;
42600;SDS011;28229;48.856;9.088;2023-05-07T06:22:03;4.53;;;3.90;;
42600;SDS011;28229;48.856;9.088;2023-05-07T06:24:32;3.90;;;3.60;;
42600;SDS011;28229;48.856;9.088;2023-05-07T06:26:58;6.03;;;4.70;;
42600;SDS011;28229;48.856;9.088;2023-05-07T06:29:26;5.13;;;4.63;;
42600;SDS011;28229;48.856;9.088;2023-05-07T06:31:52;4.17;;;3.77;;
42600;SDS011;28229;48.856;9.088;2023-05-07T06:34:21;5.43;;;4.30;;
42600;SDS011;28229;48.856;9.088;2023-05-07T06:36:47;3.97;;;3.67;;
42600;SDS011;28229;48.856;9.088;2023-05-07T06:39:36;5.80;;;4.07;;
42600;SDS011;28229;48.856;9.088;2023-05-07T06:42:03;3.70;;;3.30;;
42600;SDS011;28229;48.856;9.088;2023-05-07T06:44:32;4.13;;;3.37;;
42600;SDS011;28229;48.856;9.088;2023-05-07T06:47:04;4.40;;;3.30;;
42600;SDS011;28229;48.856;9.088;2023-05-07T06:49:34;5.23;;;3.70;;
42600;SDS011;28229;48.856;9.088;2023-05-07T06:52:00;3.83;;;3.43;;
42600;SDS011;28229;48.856;9.088;2023-05-07T06:54:27;4.33;;;3.47;;
42600;SDS011;28229;48.856;9.088;2023-05-07T06:56:53;3.70;;;3.40;;
42600;SDS011;28229;48.856;9.088;2023-05-07T06:59:21;3.63;;;3.33;;
42600;SDS011;28229;48.856;9.088;2023-05-07T07:01:49;6.67;;;3.63;;
42600;SDS011;28229;48.856;9.088;2023-05-07T07:04:15;3.23;;;3.00;;
42600;SDS011;28229;48.856;9.088;2023-05-07T07:06:44;4.43;;;3.27;;
42600;SDS011;28229;48.856;9.088;2023-05-07T07:09:12;3.43;;;3.13;;
42600;SDS011;28229;48.856;9.088;2023-05-07T07:11:40;3.60;;;3.30;;
42600;SDS011;28229;48.856;9.088;2023-05-07T07:14:07;3.13;;;2.83;;
42600;SDS011;28229;48.856;9.088;2023-05-07T07:16:39;3.83;;;3.30;;
42600;SDS011;28229;48.856;9.088;2023-05-07T07:19:05;3.70;;;2.93;;
42600;SDS011;28229;48.856;9.088;2023-05-07T07:21:32;4.53;;;3.43;;
42600;SDS011;28229;48.856;9.088;2023-05-07T07:23:58;3.40;;;3.20;;
42600;SDS011;28229;48.856;9.088;2023-05-07T07:26:26;3.57;;;3.27;;
42600;SDS011;28229;48.856;9.088;2023-05-07T07:28:52;3.40;;;3.07;;
42600;SDS011;28229;48.856;9.088;2023-05-07T07:31:21;3.87;;;3.23;;
42600;SDS011;28229;48.856;9.088;2023-05-07T07:33:49;3.40;;;3.10;;
42600;SDS011;28229;48.856;9.088;2023-05-07T07:36:16;5.17;;;3.47;;
42600;SDS011;28229;48.856;9.088;2023-05-07T07:38:42;3.40;;;3.07;;
42600;SDS011;28229;48.856;9.088;2023-05-07T07:41:09;3.00;;;2.73;;
42600;SDS011;28229;48.856;9.088;2023-05-07T07:43:36;3.00;;;2.80;;
42600;SDS011;28229;48.856;9.088;2023-05-07T07:46:02;3.57;;;3.23;;
42600;SDS011;28229;48.856;9.088;2023-05-07T07:48:28;3.47;;;3.17;;
42600;SDS011;28229;48.856;9.088;2023-05-07T07:50:55;3.43;;;2.90;;
42600;SDS011;28229;48.856;9.088;2023-05-07T07:53:22;3.40;;;3.20;;
42600;SDS011;28229;48.856;9.088;2023-05-07T07:55:48;3.13;;;2.73;;
42600;SDS011;28229;48.856;9.088;2023-05-07T07:58:18;3.70;;;3.13;;
42600;SDS011;28229;48.856;9.088;2023-05-07T08:00:44;4.20;;;3.20;;
42600;SDS011;28229;48.856;9.088;2023-05-07T08:03:12;3.83;;;2.83;;
42600;SDS011;28229;48.856;9.088;2023-05-07T08:05:42;3.83;;;3.30;;
42600;SDS011;28229;48.856;9.088;2023-05-07T08:08:09;3.33;;;2.97;;
42600;SDS011;28229;48.856;9.088;2023-05-07T08:10:37;2.97;;;2.77;;
42600;SDS011;28229;48.856;9.088;2023-05-07T08:13:10;4.00;;;3.00;;
42600;SDS011;28229;48.856;9.088;2023-05-07T08:15:38;3.80;;;3.00;;
42600;SDS011;28229;48.856;9.088;2023-05-07T08:18:05;3.47;;;2.90;;
42600;SDS011;28229;48.856;9.088;2023-05-07T08:20:33;3.27;;;3.07;;
42600;SDS011;28229;48.856;9.088;2023-05-07T08:23:01;3.10;;;2.90;;
42600;SDS011;28229;48.856;9.088;2023-05-07T08:25:28;2.87;;;2.67;;
42600;SDS011;28229;48.856;9.088;2023-05-07T08:27:55;3.40;;;3.10;;
42600;SDS011;28229;48.856;9.088;2023-05-07T08:30:21;3.30;;;3.00;;
42600;SDS011;28229;48.856;9.088;2023-05-07T08:32:47;2.93;;;2.70;;
42600;SDS011;28229;48.856;9.088;2023-05-07T08:35:14;2.97;;;2.77;;
42600;SDS011;28229;48.856;9.088;2023-05-07T08:37:40;3.43;;;2.90;;
42600;SDS011;28229;48.856;9.088;2023-05-07T08:40:06;3.30;;;3.00;;
42600;SDS011;28229;48.856;9.088;2023-05-07T08:42:35;3.33;;;3.03;;
42600;SDS011;28229;48.856;9.088;2023-05-07T08:45:03;3.73;;;3.43;;
42600;SDS011;28229;48.856;9.088;2023-05-07T08:47:38;3.93;;;3.20;;
42600;SDS011;28229;48.856;9.088;2023-05-07T08:50:12;3.83;;;3.00;;
42600;SDS011;28229;48.856;9.088;2023-05-07T08:52:39;3.60;;;3.27;;
42600;SDS011;28229;48.856;9.088;2023-05-07T08:55:07;4.23;;;3.17;;
42600;SDS011;28229;48.856;9.088;2023-05-07T08:57:34;4.93;;;3.23;;
42600;SDS011;28229;48.856;9.088;2023-05-07T09:00:02;3.50;;;3.20;;
42600;SDS011;28229;48.856;9.088;2023-05-07T09:02:30;3.50;;;3.20;;
42600;SDS011;28229;48.856;9.088;2023-05-07T09:04:57;3.40;;;3.10;;
42600;SDS011;28229;48.856;9.088;2023-05-07T09:07:23;3.77;;;3.40;;
42600;SDS011;28229;48.856;9.088;2023-05-07T09:09:50;3.90;;;2.90;;
42600;SDS011;28229;48.856;9.088;2023-05-07T09:12:17;4.60;;;2.90;;
42600;SDS011;28229;48.856;9.088;2023-05-07T09:14:45;3.03;;;2.80;;
42600;SDS011;28229;48.856;9.088;2023-05-07T09:17:15;4.30;;;3.07;;
42600;SDS011;28229;48.856;9.088;2023-05-07T09:19:43;3.67;;;3.03;;
42600;SDS011;28229;48.856;9.088;2023-05-07T09:22:14;4.20;;;2.95;;
42600;SDS011;28229;48.856;9.088;2023-05-07T09:24:53;3.20;;;2.90;;
42600;SDS011;28229;48.856;9.088;2023-05-07T09:27:30;2.90;;;2.65;;
42600;SDS011;28229;48.856;9.088;2023-05-07T09:29:59;3.42;;;2.63;;
42600;SDS011;28229;48.856;9.088;2023-05-07T09:32:28;3.30;;;2.80;;
42600;SDS011;28229;48.856;9.088;2023-05-07T09:34:58;2.50;;;2.30;;
42600;SDS011;28229;48.856;9.088;2023-05-07T09:37:26;2.55;;;2.35;;
42600;SDS011;28229;48.856;9.088;2023-05-07T09:39:52;2.58;;;2.38;;
42600;SDS011;28229;48.856;9.088;2023-05-07T09:42:23;2.45;;;2.25;;
42600;SDS011;28229;48.856;9.088;2023-05-07T09:44:55;2.72;;;2.45;;
42600;SDS011;28229;48.856;9.088;2023-05-07T09:47:24;3.22;;;2.85;;
42600;SDS011;28229;48.856;9.088;2023-05-07T09:49:57;2.78;;;2.38;;
42600;SDS011;28229;48.856;9.088;2023-05-07T09:52:29;2.95;;;2.40;;
42600;SDS011;28229;48.856;9.088;2023-05-07T09:55:01;3.05;;;2.75;;
42600;SDS011;28229;48.856;9.088;2023-05-07T09:57:29;2.63;;;2.42;;
42600;SDS011;28229;48.856;9.088;2023-05-07T10:00:02;2.58;;;2.38;;
42600;SDS011;28229;48.856;9.088;2023-05-07T10:02:47;2.95;;;2.75;;
42600;SDS011;28229;48.856;9.088;2023-05-07T10:05:18;2.58;;;2.30;;
42600;SDS011;28229;48.856;9.088;2023-05-07T10:07:46;2.47;;;2.33;;
42600;SDS011;28229;48.856;9.088;2023-05-07T10:10:14;2.15;;;2.05;;
42600;SDS011;28229;48.856;9.088;2023-05-07T10:12:45;2.55;;;2.35;;
42600;SDS011;28229;48.856;9.088;2023-05-07T10:15:19;2.50;;;2.30;;
42600;SDS011;28229;48.856;9.088;2023-05-07T10:17:50;2.33;;;2.00;;
42600;SDS011;28229;48.856;9.088;2023-05-07T10:20:19;2.30;;;2.10;;
42600;SDS011;28229;48.856;9.088;2023-05-07T10:22:47;2.10;;;2.00;;
42600;SDS011;28229;48.856;9.088;2023-05-07T10:25:21;2.53;;;1.83;;
42600;SDS011;28229;48.856;9.088;2023-05-07T10:27:51;2.78;;;1.95;;
42600;SDS011;28229;48.856;9.088;2023-05-07T10:30:33;2.20;;;2.05;;
42600;SDS011;28229;48.856;9.088;2023-05-07T10:33:12;2.50;;;2.30;;
42600;SDS011;28229;48.856;9.088;2023-05-07T10:35:55;2.35;;;2.15;;
42600;SDS011;28229;48.856;9.088;2023-05-07T10:38:26;2.30;;;2.13;;
42600;SDS011;28229;48.856;9.088;2023-05-07T10:40:53;3.20;;;2.00;;
42600;SDS011;28229;48.856;9.088;2023-05-07T10:43:20;2.20;;;2.00;;
42600;SDS011;28229;48.856;9.088;2023-05-07T10:58:22;2.22;;;2.08;;
42600;SDS011;28229;48.856;9.088;2023-05-07T11:00:58;3.63;;;3.20;;
42600;SDS011;28229;48.856;9.088;2023-05-07T11:03:31;4.18;;;2.85;;
42600;SDS011;28229;48.856;9.088;2023-05-07T11:08:57;2.90;;;2.65;;
42600;SDS011;28229;48.856;9.088;2023-05-07T11:11:48;2.45;;;2.20;;
42600;SDS011;28229;48.856;9.088;2023-05-07T11:17:19;4.85;;;3.88;;
42600;SDS011;28229;48.856;9.088;2023-05-07T11:19:55;2.70;;;2.30;;
42600;SDS011;28229;48.856;9.088;2023-05-07T11:25:19;3.22;;;2.08;;
42600;SDS011;28229;48.856;9.088;2023-05-07T11:27:50;3.38;;;2.40;;
42600;SDS011;28229;48.856;9.088;2023-05-07T11:30:17;2.67;;;2.45;;
42600;SDS011;28229;48.856;9.088;2023-05-07T11:32:47;3.28;;;2.97;;
42600;SDS011;28229;48.856;9.088;2023-05-07T11:35:15;2.80;;;2.60;;
42600;SDS011;28229;48.856;9.088;2023-05-07T11:37:44;2.60;;;2.40;;
42600;SDS011;28229;48.856;9.088;2023-05-07T11:40:12;2.70;;;2.20;;
42600;SDS011;28229;48.856;9.088;2023-05-07T11:42:39;2.72;;;2.42;;
42600;SDS011;28229;48.856;9.088;2023-05-07T11:45:08;2.45;;;2.25;;
42600;SDS011;28229;48.856;9.088;2023-05-07T11:47:35;3.55;;;2.58;;
42600;SDS011;28229;48.856;9.088;2023-05-07T11:50:04;3.63;;;2.60;;
42600;SDS011;28229;48.856;9.088;2023-05-07T11:52:33;2.67;;;2.47;;
42600;SDS011;28229;48.856;9.088;2023-05-07T11:55:00;2.72;;;2.42;;
42600;SDS011;28229;48.856;9.088;2023-05-07T11:57:29;3.30;;;2.40;;
42600;SDS011;28229;48.856;9.088;2023-05-07T11:59:58;2.35;;;2.22;;
42600;SDS011;28229;48.856;9.088;2023-05-07T12:02:38;3.55;;;2.33;;
42600;SDS011;28229;48.856;9.088;2023-05-07T12:05:04;2.55;;;2.25;;
42600;SDS011;28229;48.856;9.088;2023-05-07T12:07:32;2.53;;;2.33;;
42600;SDS011;28229;48.856;9.088;2023-05-07T12:09:59;2.33;;;2.13;;
42600;SDS011;28229;48.856;9.088;2023-05-07T12:12:30;4.32;;;2.30;;
42600;SDS011;28229;48.856;9.088;2023-05-07T12:14:56;2.70;;;2.30;;
42600;SDS011;28229;48.856;9.088;2023-05-07T12:17:22;2.58;;;2.20;;
42600;SDS011;28229;48.856;9.088;2023-05-07T12:19:49;2.22;;;2.03;;
42600;SDS011;28229;48.856;9.088;2023-05-07T12:22:15;2.53;;;1.90;;
42600;SDS011;28229;48.856;9.088;2023-05-07T12:24:45;2.53;;;1.77;;
42600;SDS011;28229;48.856;9.088;2023-05-07T12:27:13;2.03;;;1.92;;
42600;SDS011;28229;48.856;9.088;2023-05-07T12:29:43;2.10;;;2.00;;
42600;SDS011;28229;48.856;9.088;2023-05-07T12:32:18;2.50;;;2.30;;
42600;SDS011;28229;48.856;9.088;2023-05-07T12:34:50;2.40;;;1.80;;
42600;SDS011;28229;48.856;9.088;2023-05-07T12:37:22;2.70;;;1.80;;
42600;SDS011;28229;48.856;9.088;2023-05-07T12:40:08;2.13;;;2.00;;
42600;SDS011;28229;48.856;9.088;2023-05-07T12:42:36;2.33;;;1.90;;
42600;SDS011;28229;48.856;9.088;2023-05-07T12:45:09;2.23;;;1.90;;
42600;SDS011;28229;48.856;9.088;2023-05-07T12:47:37;3.60;;;2.00;;
42600;SDS011;28229;48.856;9.088;2023-05-07T12:50:06;2.70;;;2.33;;
42600;SDS011;28229;48.856;9.088;2023-05-07T12:52:33;3.33;;;2.80;;
42600;SDS011;28229;48.856;9.088;2023-05-07T12:55:06;3.43;;;2.80;;
42600;SDS011;28229;48.856;9.088;2023-05-07T12:58:07;3.70;;;3.40;;
42600;SDS011;28229;48.856;9.088;2023-05-07T13:00:33;3.70;;;3.40;;
42600;SDS011;28229;48.856;9.088;2023-05-07T13:03:02;3.30;;;2.80;;
42600;SDS011;28229;48.856;9.088;2023-05-07T13:05:29;3.53;;;2.30;;
42600;SDS011;28229;48.856;9.088;2023-05-07T13:07:55;2.07;;;1.90;;
42600;SDS011;28229;48.856;9.088;2023-05-07T13:10:22;2.83;;;1.87;;
42600;SDS011;28229;48.856;9.088;2023-05-07T13:12:49;1.87;;;1.67;;
42600;SDS011;28229;48.856;9.088;2023-05-07T13:15:16;2.67;;;1.60;;
42600;SDS011;28229;48.856;9.088;2023-05-07T13:17:43;1.60;;;1.50;;
42600;SDS011;28229;48.856;9.088;2023-05-07T13:20:10;1.70;;;1.57;;
42600;SDS011;28229;48.856;9.088;2023-05-07T13:22:37;2.37;;;1.47;;
42600;SDS011;28229;48.856;9.088;2023-05-07T13:25:03;1.83;;;1.37;;
42600;SDS011;28229;48.856;9.088;2023-05-07T13:27:30;2.50;;;1.40;;
42600;SDS011;28229;48.856;9.088;2023-05-07T13:30:05;2.17;;;1.60;;
42600;SDS011;28229;48.856;9.088;2023-05-07T13:32:32;2.10;;;1.70;;
42600;SDS011;28229;48.856;9.088;2023-05-07T13:34:58;3.07;;;1.83;;
42600;SDS011;28229;48.856;9.088;2023-05-07T13:37:25;4.27;;;2.43;;
42600;SDS011;28229;48.856;9.088;2023-05-07T13:39:51;3.27;;;1.70;;
42600;SDS011;28229;48.856;9.088;2023-05-07T13:42:17;2.80;;;1.50;;
42600;SDS011;28229;48.856;9.088;2023-05-07T13:44:43;3.40;;;1.40;;
42600;SDS011;28229;48.856;9.088;2023-05-07T13:47:12;1.60;;;1.47;;
42600;SDS011;28229;48.856;9.088;2023-05-07T13:49:39;2.30;;;1.50;;
42600;SDS011;28229;48.856;9.088;2023-05-07T13:52:05;2.93;;;1.67;;
42600;SDS011;28229;48.856;9.088;2023-05-07T13:54:31;1.87;;;1.70;;
42600;SDS011;28229;48.856;9.088;2023-05-07T13:56:57;4.13;;;3.00;;
42600;SDS011;28229;48.856;9.088;2023-05-07T13:59:23;4.53;;;2.50;;
42600;SDS011;28229;48.856;9.088;2023-05-07T14:01:49;1.53;;;1.43;;
42600;SDS011;28229;48.856;9.088;2023-05-07T14:04:16;3.80;;;1.70;;
42600;SDS011;28229;48.856;9.088;2023-05-07T14:06:43;1.77;;;1.43;;
42600;SDS011;28229;48.856;9.088;2023-05-07T14:09:09;1.60;;;1.50;;
42600;SDS011;28229;48.856;9.088;2023-05-07T14:11:38;2.33;;;1.50;;
42600;SDS011;28229;48.856;9.088;2023-05-07T14:14:04;1.40;;;1.30;;
42600;SDS011;28229;48.856;9.088;2023-05-07T14:16:30;1.47;;;1.37;;
42600;SDS011;28229;48.856;9.088;2023-05-07T14:18:56;2.70;;;1.70;;
42600;SDS011;28229;48.856;9.088;2023-05-07T14:21:22;2.03;;;1.80;;
42600;SDS011;28229;48.856;9.088;2023-05-07T14:23:48;4.00;;;1.93;;
42600;SDS011;28229;48.856;9.088;2023-05-07T14:26:17;2.33;;;1.93;;
42600;SDS011;28229;48.856;9.088;2023-05-07T14:28:43;3.73;;;2.23;;
42600;SDS011;28229;48.856;9.088;2023-05-07T14:31:12;2.37;;;2.17;;
42600;SDS011;28229;48.856;9.088;2023-05-07T14:33:38;3.07;;;2.27;;
42600;SDS011;28229;48.856;9.088;2023-05-07T14:36:05;3.43;;;2.27;;
42600;SDS011;28229;48.856;9.088;2023-05-07T14:38:31;3.53;;;2.63;;
42600;SDS011;28229;48.856;9.088;2023-05-07T14:40:58;3.13;;;2.33;;
42600;SDS011;28229;48.856;9.088;2023-05-07T14:43:25;2.90;;;2.70;;
42600;SDS011;28229;48.856;9.088;2023-05-07T14:45:53;2.90;;;2.40;;
42600;SDS011;28229;48.856;9.088;2023-05-07T14:48:20;3.03;;;2.77;;
42600;SDS011;28229;48.856;9.088;2023-05-07T14:50:46;3.63;;;2.43;;
42600;SDS011;28229;48.856;9.088;2023-05-07T14:53:14;2.63;;;2.43;;
42600;SDS011;28229;48.856;9.088;2023-05-07T14:55:40;2.70;;;2.50;;
42600;SDS011;28229;48.856;9.088;2023-05-07T14:58:06;2.67;;;2.47;;
42600;SDS011;28229;48.856;9.088;2023-05-07T15:00:47;2.93;;;2.30;;
42600;SDS011;28229;48.856;9.088;2023-05-07T15:03:16;6.20;;;2.53;;
42600;SDS011;28229;48.856;9.088;2023-05-07T15:05:44;2.23;;;2.07;;
42600;SDS011;28229;48.856;9.088;2023-05-07T15:08:10;4.80;;;2.27;;
42600;SDS011;28229;48.856;9.088;2023-05-07T15:10:37;3.30;;;2.50;;
42600;SDS011;28229;48.856;9.088;2023-05-07T15:13:07;4.07;;;2.57;;
42600;SDS011;28229;48.856;9.088;2023-05-07T15:15:34;3.33;;;2.50;;
42600;SDS011;28229;48.856;9.088;2023-05-07T15:18:02;2.63;;;2.40;;